createdAt,value
2022-12-07T00:01:47.599Z,26.43
2022-12-07T00:04:16.981Z,28.53
2022-12-07T00:06:45.846Z,28.07
2022-12-07T00:09:16.687Z,27.87
2022-12-07T00:11:44.140Z,28.40
2022-12-07T00:14:16.240Z,28.60
2022-12-07T00:16:44.409Z,26.07
2022-12-07T00:19:13.181Z,26.37
2022-12-07T00:21:40.678Z,26.40
2022-12-07T00:24:07.630Z,24.33
2022-12-07T00:26:37.181Z,24.37
2022-12-07T00:29:07.289Z,25.60
2022-12-07T00:31:39.858Z,23.90
2022-12-07T00:34:08.054Z,23.20
2022-12-07T00:36:34.616Z,23.63
2022-12-07T00:39:01.690Z,22.77
2022-12-07T00:41:28.914Z,21.60
2022-12-07T00:43:56.061Z,21.23
2022-12-07T00:46:23.212Z,22.00
2022-12-07T00:48:50.631Z,21.67
2022-12-07T00:51:19.037Z,22.37
2022-12-07T00:53:45.873Z,22.37
2022-12-07T00:56:17.964Z,22.20
2022-12-07T00:58:45.531Z,21.30
2022-12-07T01:01:12.461Z,21.67
2022-12-07T01:03:39.515Z,21.20
2022-12-07T01:06:06.646Z,19.93
2022-12-07T01:08:33.383Z,20.37
2022-12-07T01:11:08.013Z,20.63
2022-12-07T01:13:35.574Z,19.57
2022-12-07T01:16:05.616Z,19.77
2022-12-07T01:18:34.084Z,20.97
2022-12-07T01:21:07.517Z,19.83
2022-12-07T01:23:36.801Z,20.97
2022-12-07T01:26:08.813Z,21.00
2022-12-07T01:28:35.517Z,20.83
2022-12-07T01:31:03.144Z,21.70
2022-12-07T01:33:31.074Z,21.50
2022-12-07T01:36:03.663Z,22.57
2022-12-07T01:38:31.643Z,23.13
2022-12-07T01:40:58.907Z,22.07
2022-12-07T01:43:27.069Z,22.57
2022-12-07T01:45:54.115Z,21.90
2022-12-07T01:48:28.955Z,22.73
2022-12-07T01:50:57.674Z,22.43
2022-12-07T01:53:26.663Z,22.90
2022-12-07T01:55:54.253Z,23.07
2022-12-07T01:58:21.636Z,22.70
2022-12-07T02:00:48.268Z,22.23
2022-12-07T02:03:19.432Z,23.73
2022-12-07T02:05:47.553Z,23.17
2022-12-07T02:08:14.778Z,23.87
2022-12-07T02:10:41.450Z,23.80
2022-12-07T02:13:17.652Z,23.47
2022-12-07T02:16:11.837Z,23.17
2022-12-07T02:18:47.303Z,22.37
2022-12-07T02:21:19.172Z,22.07
2022-12-07T02:24:23.335Z,22.37
2022-12-07T02:27:28.880Z,24.07
2022-12-07T02:30:05.953Z,23.40
2022-12-07T02:32:41.694Z,23.40
2022-12-07T02:35:12.595Z,22.93
2022-12-07T02:37:44.471Z,24.20
2022-12-07T02:40:14.171Z,23.00
2022-12-07T02:43:00.066Z,23.37
2022-12-07T02:45:28.141Z,22.87
2022-12-07T02:47:56.831Z,23.60
2022-12-07T02:50:23.396Z,23.50
2022-12-07T02:52:50.013Z,22.20
2022-12-07T02:55:19.101Z,22.83
2022-12-07T02:58:08.741Z,23.13
2022-12-07T03:00:43.870Z,24.07
2022-12-07T03:03:12.531Z,23.20
2022-12-07T03:06:00.716Z,21.60
2022-12-07T03:08:32.982Z,22.47
2022-12-07T03:11:09.994Z,21.97
2022-12-07T03:13:48.250Z,20.80
2022-12-07T03:16:34.785Z,19.87
2022-12-07T03:19:09.787Z,20.70
2022-12-07T03:22:03.657Z,19.27
2022-12-07T03:25:00.237Z,18.80
2022-12-07T03:27:31.416Z,19.20
2022-12-07T03:30:09.768Z,19.13
2022-12-07T03:32:39.769Z,17.73
2022-12-07T03:35:10.762Z,19.73
2022-12-07T03:37:43.544Z,18.77
2022-12-07T03:40:23.805Z,18.73
2022-12-07T03:42:51.256Z,19.37
2022-12-07T03:45:18.944Z,20.63
2022-12-07T03:48:07.935Z,18.90
2022-12-07T03:50:59.946Z,19.57
2022-12-07T03:53:45.278Z,18.73
2022-12-07T03:56:12.586Z,30.90
2022-12-07T03:58:39.803Z,21.13
2022-12-07T04:01:06.557Z,20.40
2022-12-07T04:03:33.108Z,19.67
2022-12-07T04:06:00.312Z,20.97
2022-12-07T04:08:27.004Z,20.03
2022-12-07T04:10:53.473Z,21.70
2022-12-07T04:13:20.212Z,21.13
2022-12-07T04:15:46.938Z,19.73
2022-12-07T04:18:13.713Z,20.50
2022-12-07T04:20:40.363Z,21.07
2022-12-07T04:23:06.963Z,19.83
2022-12-07T04:25:34.046Z,18.87
2022-12-07T04:28:00.640Z,19.10
2022-12-07T04:30:27.370Z,19.07
2022-12-07T04:32:53.982Z,18.60
2022-12-07T04:35:20.550Z,18.87
2022-12-07T04:37:47.156Z,18.70
2022-12-07T04:40:15.286Z,19.23
2022-12-07T04:42:42.105Z,18.83
2022-12-07T04:45:09.292Z,19.73
2022-12-07T04:47:35.836Z,18.73
2022-12-07T04:50:02.885Z,19.20
2022-12-07T04:52:29.664Z,19.67
2022-12-07T04:54:56.227Z,17.83
2022-12-07T04:57:22.941Z,19.07
2022-12-07T04:59:49.494Z,18.53
2022-12-07T05:02:16.330Z,18.03
2022-12-07T05:04:42.919Z,19.20
2022-12-07T05:07:09.602Z,18.40
2022-12-07T05:09:36.266Z,17.00
2022-12-07T05:12:03.716Z,18.07
2022-12-07T05:14:30.281Z,16.60
2022-12-07T05:16:56.909Z,16.37
2022-12-07T05:19:24.227Z,16.83
2022-12-07T05:21:50.700Z,17.50
2022-12-07T05:24:18.061Z,16.27
2022-12-07T05:26:45.563Z,16.67
2022-12-07T05:29:14.251Z,16.27
2022-12-07T05:31:40.904Z,16.03
2022-12-07T05:34:07.709Z,16.27
2022-12-07T05:36:34.484Z,16.13
2022-12-07T05:39:01.183Z,16.20
2022-12-07T05:41:46.072Z,15.93
2022-12-07T05:44:12.645Z,16.33
2022-12-07T05:46:39.306Z,15.90
2022-12-07T05:49:06.006Z,17.77
2022-12-07T05:51:32.826Z,17.17
2022-12-07T05:53:59.503Z,17.57
2022-12-07T05:56:27.690Z,18.40
2022-12-07T05:59:13.868Z,18.63
2022-12-07T06:01:41.368Z,19.43
2022-12-07T06:04:11.133Z,19.47
2022-12-07T06:06:38.168Z,21.20
2022-12-07T06:09:04.823Z,19.60
2022-12-07T06:11:49.958Z,19.53
2022-12-07T06:14:16.688Z,20.10
2022-12-07T06:16:43.707Z,19.83
2022-12-07T06:19:10.390Z,19.20
2022-12-07T06:21:36.939Z,18.10
2022-12-07T06:24:04.021Z,18.57
2022-12-07T06:26:30.806Z,17.73
2022-12-07T06:28:57.403Z,18.10
2022-12-07T06:31:24.019Z,18.40
2022-12-07T06:33:50.615Z,20.43
2022-12-07T06:36:17.144Z,19.27
2022-12-07T06:38:43.937Z,19.17
2022-12-07T06:41:10.473Z,18.90
2022-12-07T06:43:37.044Z,20.70
2022-12-07T06:46:03.605Z,19.33
2022-12-07T06:48:30.151Z,19.43
2022-12-07T06:50:56.741Z,20.30
2022-12-07T06:53:23.569Z,18.67
2022-12-07T06:55:50.350Z,18.27
2022-12-07T06:58:17.595Z,16.80
2022-12-07T07:00:44.932Z,16.53
2022-12-07T07:03:11.943Z,15.70
2022-12-07T07:05:38.704Z,16.93
2022-12-07T07:08:21.929Z,14.67
2022-12-07T07:10:49.036Z,15.03
2022-12-07T07:13:15.509Z,13.73
2022-12-07T07:15:42.144Z,14.47
2022-12-07T07:18:08.642Z,14.77
2022-12-07T07:20:35.702Z,12.63
2022-12-07T07:23:02.298Z,12.40
2022-12-07T07:25:29.071Z,12.27
2022-12-07T07:27:55.532Z,12.13
2022-12-07T07:30:22.513Z,12.77
2022-12-07T07:32:49.345Z,12.17
2022-12-07T07:35:16.107Z,11.60
2022-12-07T07:37:42.687Z,11.00
2022-12-07T07:40:10.634Z,11.70
2022-12-07T07:42:37.234Z,11.40
2022-12-07T07:45:04.064Z,10.77
2022-12-07T07:47:30.771Z,10.97
2022-12-07T07:49:58.112Z,10.97
2022-12-07T07:52:24.736Z,11.43
2022-12-07T07:54:51.338Z,10.97
2022-12-07T07:57:18.633Z,11.40
2022-12-07T07:59:45.292Z,10.67
2022-12-07T08:02:16.597Z,9.67
2022-12-07T08:04:43.591Z,9.37
2022-12-07T08:07:10.323Z,9.43
2022-12-07T08:09:36.911Z,9.40
2022-12-07T08:12:03.783Z,10.83
2022-12-07T08:14:30.404Z,10.27
2022-12-07T08:16:56.969Z,13.37
2022-12-07T08:19:24.082Z,10.17
2022-12-07T08:21:51.229Z,8.93
2022-12-07T08:24:17.793Z,9.30
2022-12-07T08:26:44.464Z,8.83
2022-12-07T08:29:11.236Z,9.67
2022-12-07T08:31:37.957Z,9.30
2022-12-07T08:34:04.519Z,8.63
2022-12-07T08:36:31.086Z,9.20
2022-12-07T08:39:29.700Z,9.50
2022-12-07T08:41:44.328Z,9.30
2022-12-07T08:44:10.897Z,8.80
2022-12-07T08:46:48.536Z,8.53
2022-12-07T08:49:19.965Z,8.90
2022-12-07T08:51:46.834Z,8.57
2022-12-07T08:54:16.215Z,8.30
2022-12-07T08:56:43.031Z,8.23
2022-12-07T08:59:09.905Z,8.60
2022-12-07T09:01:36.513Z,8.83
2022-12-07T09:04:03.381Z,9.07
2022-12-07T09:06:30.316Z,9.60
2022-12-07T09:08:59.384Z,9.83
2022-12-07T09:11:28.780Z,8.53
2022-12-07T09:13:56.225Z,9.53
2022-12-07T09:16:23.044Z,8.07
2022-12-07T09:18:50.001Z,8.17
2022-12-07T09:21:16.526Z,8.17
2022-12-07T09:23:49.020Z,8.40
2022-12-07T09:26:15.730Z,9.03
2022-12-07T09:28:42.286Z,7.87
2022-12-07T09:31:25.877Z,7.63
2022-12-07T09:34:00.671Z,7.60
2022-12-07T09:36:28.515Z,7.53
2022-12-07T09:38:55.241Z,7.93
2022-12-07T09:41:23.763Z,7.80
2022-12-07T09:43:50.644Z,8.43
2022-12-07T09:46:20.155Z,7.97
2022-12-07T09:48:47.042Z,8.07
2022-12-07T09:51:25.148Z,8.63
2022-12-07T09:53:54.481Z,9.00
2022-12-07T09:56:22.186Z,9.27
2022-12-07T09:58:49.477Z,11.10
2022-12-07T10:01:19.695Z,11.83
2022-12-07T10:03:51.147Z,9.23
2022-12-07T10:06:17.801Z,8.70
2022-12-07T10:08:44.684Z,9.50
2022-12-07T10:11:12.204Z,9.53
2022-12-07T10:13:49.016Z,9.40
2022-12-07T10:16:40.335Z,9.50
2022-12-07T10:19:25.826Z,8.83
2022-12-07T10:22:30.342Z,8.43
2022-12-07T10:25:09.604Z,8.40
2022-12-07T10:27:36.646Z,8.90
2022-12-07T10:30:08.985Z,8.50
2022-12-07T10:32:37.180Z,7.87
2022-12-07T10:35:33.137Z,7.40
2022-12-07T10:38:00.886Z,7.40
2022-12-07T10:40:38.705Z,6.83
2022-12-07T10:43:15.281Z,6.83
2022-12-07T10:46:04.160Z,6.37
2022-12-07T10:48:43.470Z,5.60
2022-12-07T10:51:09.906Z,6.67
2022-12-07T10:53:55.415Z,5.97
2022-12-07T10:56:41.358Z,6.40
2022-12-07T10:59:21.398Z,6.13
2022-12-07T11:02:30.026Z,6.27
2022-12-07T11:05:18.005Z,6.13
2022-12-07T11:07:58.740Z,6.50
2022-12-07T11:10:34.432Z,6.67
2022-12-07T11:13:05.839Z,6.97
2022-12-07T11:15:41.386Z,6.20
2022-12-07T11:18:29.595Z,6.50
2022-12-07T11:21:15.237Z,7.13
2022-12-07T11:24:10.146Z,6.97
2022-12-07T11:26:42.757Z,6.47
2022-12-07T11:29:28.585Z,6.67
2022-12-07T11:32:23.508Z,6.23
2022-12-07T11:35:24.431Z,6.10
2022-12-07T11:37:55.947Z,5.97
2022-12-07T11:40:37.025Z,5.40
2022-12-07T11:43:17.436Z,5.77
2022-12-07T11:45:46.603Z,6.60
2022-12-07T11:48:13.251Z,6.33
2022-12-07T11:50:55.832Z,6.53
2022-12-07T11:53:32.654Z,5.77
2022-12-07T11:56:20.517Z,5.87
2022-12-07T11:59:05.417Z,5.83
2022-12-07T12:01:32.239Z,5.67
2022-12-07T12:04:11.388Z,4.97
2022-12-07T12:06:44.551Z,5.17
2022-12-07T12:09:38.965Z,5.20
2022-12-07T12:15:23.700Z,4.67
2022-12-07T12:18:31.764Z,4.63
2022-12-07T12:21:05.899Z,5.67
2022-12-07T12:23:42.867Z,4.40
2022-12-07T12:26:23.427Z,4.27
2022-12-07T12:29:00.267Z,5.17
2022-12-07T12:31:38.333Z,4.23
2022-12-07T12:34:31.632Z,4.80
2022-12-07T12:36:58.414Z,4.63
2022-12-07T12:39:25.030Z,4.70
2022-12-07T12:41:53.130Z,4.40
2022-12-07T12:44:20.120Z,4.70
2022-12-07T12:46:56.894Z,4.77
2022-12-07T12:49:23.697Z,4.00
2022-12-07T12:52:16.510Z,4.07
2022-12-07T12:55:04.032Z,3.83
2022-12-07T12:57:32.568Z,3.67
2022-12-07T13:00:01.509Z,3.00
2022-12-07T13:02:33.917Z,5.43
2022-12-07T13:05:11.378Z,4.50
2022-12-07T13:07:47.006Z,4.57
2022-12-07T13:10:31.760Z,3.90
2022-12-07T13:13:14.963Z,3.90
2022-12-07T13:15:55.179Z,4.10
2022-12-07T13:18:26.626Z,3.07
2022-12-07T13:20:55.271Z,2.87
2022-12-07T13:23:46.202Z,3.37
2022-12-07T13:26:34.719Z,3.40
2022-12-07T13:29:10.247Z,3.30
2022-12-07T13:31:50.513Z,3.50
2022-12-07T13:34:36.716Z,2.73
2022-12-07T13:37:14.115Z,3.13
2022-12-07T13:39:49.126Z,3.10
2022-12-07T13:42:36.316Z,3.50
2022-12-07T13:45:43.981Z,3.63
2022-12-07T13:48:35.659Z,3.10
2022-12-07T13:51:04.121Z,3.07
2022-12-07T13:53:31.777Z,3.20
2022-12-07T13:56:02.268Z,2.90
2022-12-07T13:58:31.935Z,3.13
2022-12-07T14:00:59.100Z,3.33
2022-12-07T14:03:32.609Z,3.70
2022-12-07T14:06:28.026Z,3.23
2022-12-07T14:09:09.471Z,3.30
2022-12-07T14:11:36.360Z,2.90
2022-12-07T14:14:04.118Z,3.30
2022-12-07T14:16:34.816Z,3.50
2022-12-07T14:19:04.055Z,4.10
2022-12-07T14:21:32.938Z,3.33
2022-12-07T14:24:19.981Z,3.10
2022-12-07T14:26:51.377Z,3.30
2022-12-07T14:29:24.163Z,3.00
2022-12-07T14:31:50.792Z,2.40
2022-12-07T14:34:17.307Z,3.00
2022-12-07T14:36:43.880Z,2.70
2022-12-07T14:39:13.444Z,2.90
2022-12-07T14:41:52.881Z,3.00
2022-12-07T14:44:28.293Z,3.00
2022-12-07T14:49:45.599Z,3.93
2022-12-07T14:55:14.943Z,3.47
2022-12-07T14:57:41.522Z,3.83
2022-12-07T15:00:09.435Z,3.40
2022-12-07T15:02:35.994Z,3.40
2022-12-07T15:05:03.098Z,3.17
2022-12-07T15:07:30.008Z,3.57
2022-12-07T15:09:56.497Z,3.20
2022-12-07T15:12:24.609Z,3.70
2022-12-07T15:14:51.334Z,3.40
2022-12-07T15:17:28.128Z,3.23
2022-12-07T15:19:58.580Z,3.40
2022-12-07T15:22:25.187Z,3.67
2022-12-07T15:24:51.950Z,3.47
2022-12-07T15:27:18.667Z,3.50
2022-12-07T15:29:45.332Z,3.30
2022-12-07T15:32:11.895Z,3.60
2022-12-07T15:34:40.586Z,4.00
2022-12-07T15:37:07.995Z,4.03
2022-12-07T15:39:34.742Z,4.03
2022-12-07T15:42:01.726Z,4.23
2022-12-07T15:44:46.950Z,4.10
2022-12-07T15:47:13.624Z,4.43
2022-12-07T15:49:40.227Z,3.70
2022-12-07T15:52:07.174Z,3.70
2022-12-07T15:54:34.331Z,3.77
2022-12-07T15:57:01.258Z,3.63
2022-12-07T15:59:29.022Z,3.83
2022-12-07T16:01:56.368Z,4.13
2022-12-07T16:04:24.532Z,3.77
2022-12-07T16:06:52.188Z,4.20
2022-12-07T16:09:19.980Z,4.20
2022-12-07T16:11:46.580Z,4.67
2022-12-07T16:14:13.843Z,5.17
2022-12-07T16:16:44.254Z,5.20
2022-12-07T16:19:12.339Z,4.90
2022-12-07T16:21:39.153Z,5.10
2022-12-07T16:24:06.365Z,4.90
2022-12-07T16:26:33.512Z,5.03
2022-12-07T16:29:00.153Z,4.43
2022-12-07T16:31:29.880Z,5.23
2022-12-07T16:33:58.535Z,6.43
2022-12-07T16:36:55.027Z,5.40
2022-12-07T16:39:13.527Z,5.40
2022-12-07T16:41:40.116Z,5.67
2022-12-07T16:44:08.568Z,4.97
2022-12-07T16:46:36.888Z,5.90
2022-12-07T16:49:04.702Z,5.53
2022-12-07T16:51:32.095Z,5.27
2022-12-07T16:53:58.816Z,5.10
2022-12-07T16:56:27.720Z,4.97
2022-12-07T16:58:54.613Z,5.13
2022-12-07T17:01:23.618Z,4.73
2022-12-07T17:03:50.834Z,5.30
2022-12-07T17:06:18.397Z,4.70
2022-12-07T17:08:45.573Z,5.60
2022-12-07T17:11:20.262Z,5.00
2022-12-07T17:14:06.012Z,4.63
2022-12-07T17:16:33.070Z,4.80
2022-12-07T17:18:59.930Z,5.00
2022-12-07T17:21:26.458Z,4.53
2022-12-07T17:23:53.038Z,4.73
2022-12-07T17:26:23.629Z,5.07
2022-12-07T17:28:50.652Z,4.83
2022-12-07T17:31:21.358Z,5.17
2022-12-07T17:33:48.234Z,5.20
2022-12-07T17:36:25.726Z,5.17
2022-12-07T17:38:52.692Z,5.10
2022-12-07T17:41:38.935Z,5.60
2022-12-07T17:44:07.670Z,5.30
2022-12-07T17:46:34.609Z,5.30
2022-12-07T17:49:02.108Z,7.13
2022-12-07T17:51:47.339Z,5.60
2022-12-07T17:54:14.275Z,6.07
2022-12-07T17:56:41.059Z,6.63
2022-12-07T17:59:08.309Z,6.43
2022-12-07T18:01:35.850Z,6.00
2022-12-07T18:04:03.774Z,4.90
2022-12-07T18:06:30.564Z,4.67
2022-12-07T18:08:57.792Z,3.53
2022-12-07T18:11:24.557Z,2.90
2022-12-07T18:13:51.144Z,2.60
2022-12-07T18:16:21.368Z,2.70
2022-12-07T18:18:52.524Z,2.93
2022-12-07T18:21:25.544Z,3.50
2022-12-07T18:23:54.308Z,8.87
2022-12-07T18:26:22.161Z,3.83
2022-12-07T18:28:49.192Z,2.53
2022-12-07T18:31:16.472Z,3.10
2022-12-07T18:33:45.783Z,3.17
2022-12-07T18:36:12.929Z,3.10
2022-12-07T18:38:39.666Z,3.57
2022-12-07T18:41:12.401Z,4.43
2022-12-07T18:43:39.049Z,4.87
2022-12-07T18:46:13.600Z,9.37
2022-12-07T18:48:40.522Z,7.27
2022-12-07T18:51:08.513Z,4.87
2022-12-07T18:53:35.641Z,4.53
2022-12-07T18:56:22.540Z,4.90
2022-12-07T18:59:18.210Z,4.80
2022-12-07T19:01:48.801Z,4.30
2022-12-07T19:04:15.901Z,4.30
2022-12-07T19:06:44.093Z,4.50
2022-12-07T19:09:13.015Z,4.87
2022-12-07T19:11:52.706Z,5.00
2022-12-07T19:14:28.115Z,5.07
2022-12-07T19:16:59.559Z,4.53
2022-12-07T19:19:31.800Z,4.93
2022-12-07T19:21:58.464Z,4.83
2022-12-07T19:24:25.008Z,5.77
2022-12-07T19:26:52.556Z,18.83
2022-12-07T19:29:19.440Z,11.80
2022-12-07T19:31:46.245Z,6.03
2022-12-07T19:34:16.019Z,5.67
2022-12-07T19:36:43.913Z,6.30
2022-12-07T19:39:14.778Z,6.87
2022-12-07T19:41:44.527Z,5.87
2022-12-07T19:44:12.695Z,5.73
2022-12-07T19:46:39.675Z,5.90
2022-12-07T19:49:06.325Z,5.87
2022-12-07T19:51:33.098Z,5.43
2022-12-07T19:54:00.796Z,5.80
2022-12-07T19:56:29.073Z,6.87
2022-12-07T19:58:56.689Z,14.70
2022-12-07T20:01:23.422Z,8.37
2022-12-07T20:03:50.085Z,8.30
2022-12-07T20:06:19.082Z,23.30
2022-12-07T20:08:46.877Z,15.80
2022-12-07T20:11:34.186Z,9.70
2022-12-07T20:14:00.719Z,7.90
2022-12-07T20:16:28.032Z,8.77
2022-12-07T20:18:57.907Z,7.17
2022-12-07T20:21:25.200Z,7.47
2022-12-07T20:23:52.107Z,7.97
2022-12-07T20:26:19.251Z,7.07
2022-12-07T20:28:46.958Z,6.80
2022-12-07T20:31:15.937Z,7.20
2022-12-07T20:33:46.574Z,7.40
2022-12-07T20:36:14.924Z,8.80
2022-12-07T20:38:42.237Z,8.13
2022-12-07T20:41:31.727Z,7.33
2022-12-07T20:43:59.622Z,7.20
2022-12-07T20:46:26.720Z,7.60
2022-12-07T20:48:54.378Z,7.27
2022-12-07T20:51:21.361Z,7.63
2022-12-07T20:53:48.223Z,8.13
2022-12-07T20:56:33.765Z,7.50
2022-12-07T20:59:05.491Z,8.40
2022-12-07T21:01:32.206Z,9.48
2022-12-07T21:04:00.426Z,8.70
2022-12-07T21:06:28.335Z,9.17
2022-12-07T21:08:57.107Z,9.70
2022-12-07T21:11:24.739Z,9.63
2022-12-07T21:13:51.310Z,10.00
2022-12-07T21:16:20.554Z,10.20
2022-12-07T21:18:48.458Z,12.20
2022-12-07T21:21:16.877Z,12.37
2022-12-07T21:23:43.805Z,12.37
2022-12-07T21:26:16.379Z,12.83
2022-12-07T21:28:42.852Z,11.70
2022-12-07T21:31:13.864Z,12.47
2022-12-07T21:33:40.977Z,13.53
2022-12-07T21:36:10.260Z,13.10
2022-12-07T21:38:36.977Z,13.77
2022-12-07T21:41:22.276Z,14.10
2022-12-07T21:43:49.673Z,15.20
2022-12-07T21:46:17.192Z,14.30
2022-12-07T21:48:48.419Z,14.73
2022-12-07T21:51:15.036Z,15.30
2022-12-07T21:53:42.762Z,14.70
2022-12-07T21:56:24.113Z,14.70
2022-12-07T21:58:52.378Z,15.57
2022-12-07T22:01:25.266Z,16.07
2022-12-07T22:03:52.754Z,17.07
2022-12-07T22:06:21.743Z,18.00
2022-12-07T22:08:48.961Z,17.90
2022-12-07T22:11:15.722Z,17.40
2022-12-07T22:14:06.795Z,17.23
2022-12-07T22:16:36.777Z,19.13
2022-12-07T22:19:03.818Z,17.20
2022-12-07T22:21:31.161Z,17.33
2022-12-07T22:23:58.073Z,17.73
2022-12-07T22:26:24.892Z,16.80
2022-12-07T22:28:51.716Z,17.77
2022-12-07T22:31:19.972Z,18.30
2022-12-07T22:33:46.940Z,18.30
2022-12-07T22:36:13.704Z,16.77
2022-12-07T22:38:40.914Z,17.37
2022-12-07T22:41:11.495Z,17.73
2022-12-07T22:43:38.073Z,16.33
2022-12-07T22:46:04.862Z,16.87
2022-12-07T22:48:31.430Z,15.13
2022-12-07T22:50:58.006Z,15.93
2022-12-07T22:53:24.986Z,14.77
2022-12-07T22:55:52.103Z,15.70
2022-12-07T22:58:19.218Z,13.73
2022-12-07T23:00:46.126Z,13.87
2022-12-07T23:03:13.903Z,14.20
2022-12-07T23:05:45.331Z,13.73
2022-12-07T23:08:12.691Z,13.73
2022-12-07T23:10:44.177Z,13.33
2022-12-07T23:13:35.977Z,14.87
2022-12-07T23:16:13.886Z,13.07
2022-12-07T23:18:41.522Z,13.20
2022-12-07T23:21:08.508Z,12.93
2022-12-07T23:23:35.625Z,12.40
2022-12-07T23:26:07.073Z,13.27
2022-12-07T23:28:34.316Z,13.17
2022-12-07T23:31:05.717Z,12.43
2022-12-07T23:33:32.930Z,11.47
2022-12-07T23:36:14.484Z,11.80
2022-12-07T23:38:42.947Z,10.23
2022-12-07T23:41:12.630Z,10.63
2022-12-07T23:43:39.523Z,10.50
2022-12-07T23:46:15.322Z,10.50
2022-12-07T23:48:42.303Z,9.83
2022-12-07T23:51:09.946Z,9.37
2022-12-07T23:53:37.879Z,9.73
2022-12-07T23:56:04.962Z,9.77
2022-12-07T23:58:31.877Z,9.83
